sensor_id;sensor_type;location;lat;lon;timestamp;temperature;humidity
78992;DHT22;72820;44.838;37.674;2024-01-27T00:00:39;3.78;85.45
78992;DHT22;72820;44.838;37.674;2024-01-27T00:01:40;3.83;85.64
78992;DHT22;72820;44.838;37.674;2024-01-27T00:02:43;3.85;85.52
78992;DHT22;72820;44.838;37.674;2024-01-27T00:03:45;3.85;85.41
78992;DHT22;72820;44.838;37.674;2024-01-27T00:04:46;3.85;85.30
78992;DHT22;72820;44.838;37.674;2024-01-27T00:05:48;3.82;85.26
78992;DHT22;72820;44.838;37.674;2024-01-27T00:06:50;3.79;84.99
78992;DHT22;72820;44.838;37.674;2024-01-27T00:07:51;3.76;85.22
78992;DHT22;72820;44.838;37.674;2024-01-27T00:08:53;3.72;85.09
78992;DHT22;72820;44.838;37.674;2024-01-27T00:09:55;3.71;85.09
78992;DHT22;72820;44.838;37.674;2024-01-27T00:10:56;3.66;85.30
78992;DHT22;72820;44.838;37.674;2024-01-27T00:11:58;3.68;85.52
78992;DHT22;72820;44.838;37.674;2024-01-27T00:13:00;3.66;85.54
78992;DHT22;72820;44.838;37.674;2024-01-27T00:14:02;3.71;85.67
78992;DHT22;72820;44.838;37.674;2024-01-27T00:15:07;3.74;86.05
78992;DHT22;72820;44.838;37.674;2024-01-27T00:16:09;3.78;86.30
78992;DHT22;72820;44.838;37.674;2024-01-27T00:17:11;3.85;86.40
78992;DHT22;72820;44.838;37.674;2024-01-27T00:18:12;3.89;86.17
78992;DHT22;72820;44.838;37.674;2024-01-27T00:19:14;3.92;86.05
78992;DHT22;72820;44.838;37.674;2024-01-27T00:20:16;3.94;86.09
78992;DHT22;72820;44.838;37.674;2024-01-27T00:21:17;4.02;85.89
78992;DHT22;72820;44.838;37.674;2024-01-27T00:22:19;4.00;85.80
78992;DHT22;72820;44.838;37.674;2024-01-27T00:23:24;4.03;85.92
78992;DHT22;72820;44.838;37.674;2024-01-27T00:24:25;4.07;85.79
78992;DHT22;72820;44.838;37.674;2024-01-27T00:25:27;4.07;85.87
78992;DHT22;72820;44.838;37.674;2024-01-27T00:26:29;4.07;85.78
78992;DHT22;72820;44.838;37.674;2024-01-27T00:27:30;4.09;85.73
78992;DHT22;72820;44.838;37.674;2024-01-27T00:28:32;4.11;85.75
78992;DHT22;72820;44.838;37.674;2024-01-27T00:29:34;4.10;85.60
78992;DHT22;72820;44.838;37.674;2024-01-27T00:30:35;4.13;85.57
78992;DHT22;72820;44.838;37.674;2024-01-27T00:31:37;4.13;85.69
78992;DHT22;72820;44.838;37.674;2024-01-27T00:32:38;4.14;85.71
78992;DHT22;72820;44.838;37.674;2024-01-27T00:33:40;4.14;85.66
78992;DHT22;72820;44.838;37.674;2024-01-27T00:34:42;4.16;85.62
78992;DHT22;72820;44.838;37.674;2024-01-27T00:35:43;4.14;85.51
78992;DHT22;72820;44.838;37.674;2024-01-27T00:36:45;4.11;85.41
78992;DHT22;72820;44.838;37.674;2024-01-27T00:37:50;4.14;85.46
78992;DHT22;72820;44.838;37.674;2024-01-27T00:38:51;4.16;85.43
78992;DHT22;72820;44.838;37.674;2024-01-27T00:39:53;4.17;85.32
78992;DHT22;72820;44.838;37.674;2024-01-27T00:40:55;4.20;85.32
78992;DHT22;72820;44.838;37.674;2024-01-27T00:41:57;4.20;85.24
78992;DHT22;72820;44.838;37.674;2024-01-27T00:42:59;4.21;85.18
78992;DHT22;72820;44.838;37.674;2024-01-27T00:44:01;4.23;85.14
78992;DHT22;72820;44.838;37.674;2024-01-27T00:45:04;4.25;85.09
78992;DHT22;72820;44.838;37.674;2024-01-27T00:46:06;4.23;84.99
78992;DHT22;72820;44.838;37.674;2024-01-27T00:47:08;4.25;85.02
78992;DHT22;72820;44.838;37.674;2024-01-27T00:48:09;4.30;84.98
78992;DHT22;72820;44.838;37.674;2024-01-27T00:49:11;4.30;84.82
78992;DHT22;72820;44.838;37.674;2024-01-27T00:50:13;4.36;84.74
78992;DHT22;72820;44.838;37.674;2024-01-27T00:51:15;4.36;84.71
78992;DHT22;72820;44.838;37.674;2024-01-27T00:52:16;4.33;84.49
78992;DHT22;72820;44.838;37.674;2024-01-27T00:53:18;4.37;84.52
78992;DHT22;72820;44.838;37.674;2024-01-27T00:54:20;4.38;84.57
78992;DHT22;72820;44.838;37.674;2024-01-27T00:55:21;4.41;84.50
78992;DHT22;72820;44.838;37.674;2024-01-27T00:56:23;4.37;84.32
78992;DHT22;72820;44.838;37.674;2024-01-27T00:57:24;4.37;84.37
78992;DHT22;72820;44.838;37.674;2024-01-27T00:58:26;4.37;84.33
78992;DHT22;72820;44.838;37.674;2024-01-27T00:59:28;4.37;84.30
78992;DHT22;72820;44.838;37.674;2024-01-27T01:00:29;4.33;84.14
78992;DHT22;72820;44.838;37.674;2024-01-27T01:01:31;4.27;84.42
78992;DHT22;72820;44.838;37.674;2024-01-27T01:02:33;4.25;84.47
78992;DHT22;72820;44.838;37.674;2024-01-27T01:03:34;4.30;84.52
78992;DHT22;72820;44.838;37.674;2024-01-27T01:04:36;4.30;84.18
78992;DHT22;72820;44.838;37.674;2024-01-27T01:05:38;4.21;84.36
78992;DHT22;72820;44.838;37.674;2024-01-27T01:06:40;4.16;84.45
78992;DHT22;72820;44.838;37.674;2024-01-27T01:07:42;4.14;84.45
78992;DHT22;72820;44.838;37.674;2024-01-27T01:08:43;4.14;84.62
78992;DHT22;72820;44.838;37.674;2024-01-27T01:09:45;4.11;84.43
78992;DHT22;72820;44.838;37.674;2024-01-27T01:10:47;4.09;84.60
78992;DHT22;72820;44.838;37.674;2024-01-27T01:11:49;4.00;84.53
78992;DHT22;72820;44.838;37.674;2024-01-27T01:12:50;3.94;84.85
78992;DHT22;72820;44.838;37.674;2024-01-27T01:13:52;3.92;85.24
78992;DHT22;72820;44.838;37.674;2024-01-27T01:14:54;3.93;85.31
78992;DHT22;72820;44.838;37.674;2024-01-27T01:15:55;3.97;85.29
78992;DHT22;72820;44.838;37.674;2024-01-27T01:16:57;3.96;85.08
78992;DHT22;72820;44.838;37.674;2024-01-27T01:17:59;3.96;85.07
78992;DHT22;72820;44.838;37.674;2024-01-27T01:19:01;3.99;85.09
78992;DHT22;72820;44.838;37.674;2024-01-27T01:20:03;4.02;85.03
78992;DHT22;72820;44.838;37.674;2024-01-27T01:21:06;4.00;84.99
78992;DHT22;72820;44.838;37.674;2024-01-27T01:22:07;4.07;85.40
78992;DHT22;72820;44.838;37.674;2024-01-27T01:23:09;4.09;85.46
78992;DHT22;72820;44.838;37.674;2024-01-27T01:24:11;4.13;85.45
78992;DHT22;72820;44.838;37.674;2024-01-27T01:25:13;4.17;85.45
78992;DHT22;72820;44.838;37.674;2024-01-27T01:26:14;4.20;85.33
78992;DHT22;72820;44.838;37.674;2024-01-27T01:27:16;4.23;85.15
78992;DHT22;72820;44.838;37.674;2024-01-27T01:28:20;4.23;84.66
78992;DHT22;72820;44.838;37.674;2024-01-27T01:29:21;4.20;84.58
78992;DHT22;72820;44.838;37.674;2024-01-27T01:30:23;4.17;84.75
78992;DHT22;72820;44.838;37.674;2024-01-27T01:31:25;4.17;84.80
78992;DHT22;72820;44.838;37.674;2024-01-27T01:32:26;4.16;84.79
78992;DHT22;72820;44.838;37.674;2024-01-27T01:33:28;4.14;84.83
78992;DHT22;72820;44.838;37.674;2024-01-27T01:34:30;4.11;85.02
78992;DHT22;72820;44.838;37.674;2024-01-27T01:35:33;4.13;85.02
78992;DHT22;72820;44.838;37.674;2024-01-27T01:36:34;4.13;85.16
78992;DHT22;72820;44.838;37.674;2024-01-27T01:37:36;4.16;85.34
78992;DHT22;72820;44.838;37.674;2024-01-27T01:38:38;4.18;85.33
78992;DHT22;72820;44.838;37.674;2024-01-27T01:39:39;4.21;85.33
78992;DHT22;72820;44.838;37.674;2024-01-27T01:40:41;4.23;85.35
78992;DHT22;72820;44.838;37.674;2024-01-27T01:41:43;4.27;85.33
78992;DHT22;72820;44.838;37.674;2024-01-27T01:42:50;4.30;85.27
78992;DHT22;72820;44.838;37.674;2024-01-27T01:43:52;4.30;85.14
78992;DHT22;72820;44.838;37.674;2024-01-27T01:44:54;4.31;84.88
78992;DHT22;72820;44.838;37.674;2024-01-27T01:45:56;4.33;84.96
78992;DHT22;72820;44.838;37.674;2024-01-27T01:46:58;4.33;84.87
78992;DHT22;72820;44.838;37.674;2024-01-27T01:48:00;4.34;84.84
78992;DHT22;72820;44.838;37.674;2024-01-27T01:49:02;4.34;84.80
78992;DHT22;72820;44.838;37.674;2024-01-27T01:50:05;4.33;84.68
78992;DHT22;72820;44.838;37.674;2024-01-27T01:51:08;4.34;84.68
78992;DHT22;72820;44.838;37.674;2024-01-27T01:52:10;4.37;84.80
78992;DHT22;72820;44.838;37.674;2024-01-27T01:53:13;4.40;84.90
78992;DHT22;72820;44.838;37.674;2024-01-27T01:54:15;4.41;84.82
78992;DHT22;72820;44.838;37.674;2024-01-27T01:55:17;4.44;84.95
78992;DHT22;72820;44.838;37.674;2024-01-27T01:56:18;4.45;84.83
78992;DHT22;72820;44.838;37.674;2024-01-27T01:57:21;4.52;84.72
78992;DHT22;72820;44.838;37.674;2024-01-27T01:58:22;4.51;84.77
78992;DHT22;72820;44.838;37.674;2024-01-27T01:59:24;4.58;84.78
78992;DHT22;72820;44.838;37.674;2024-01-27T02:00:26;4.64;84.65
78992;DHT22;72820;44.838;37.674;2024-01-27T02:01:27;4.64;84.56
78992;DHT22;72820;44.838;37.674;2024-01-27T02:02:29;4.69;84.22
78992;DHT22;72820;44.838;37.674;2024-01-27T02:03:31;4.71;83.95
78992;DHT22;72820;44.838;37.674;2024-01-27T02:04:45;4.71;83.68
78992;DHT22;72820;44.838;37.674;2024-01-27T02:05:47;4.72;83.54
78992;DHT22;72820;44.838;37.674;2024-01-27T02:06:48;4.68;83.59
78992;DHT22;72820;44.838;37.674;2024-01-27T02:07:50;4.68;83.54
78992;DHT22;72820;44.838;37.674;2024-01-27T02:08:52;4.68;83.67
78992;DHT22;72820;44.838;37.674;2024-01-27T02:09:54;4.69;83.81
78992;DHT22;72820;44.838;37.674;2024-01-27T02:10:56;4.69;83.85
78992;DHT22;72820;44.838;37.674;2024-01-27T02:11:59;4.68;83.81
78992;DHT22;72820;44.838;37.674;2024-01-27T02:13:01;4.68;83.79
78992;DHT22;72820;44.838;37.674;2024-01-27T02:14:03;4.68;83.94
78992;DHT22;72820;44.838;37.674;2024-01-27T02:15:05;4.69;84.00
78992;DHT22;72820;44.838;37.674;2024-01-27T02:16:06;4.72;83.83
78992;DHT22;72820;44.838;37.674;2024-01-27T02:17:08;4.71;83.70
78992;DHT22;72820;44.838;37.674;2024-01-27T02:18:10;4.72;83.83
78992;DHT22;72820;44.838;37.674;2024-01-27T02:19:12;4.71;83.76
78992;DHT22;72820;44.838;37.674;2024-01-27T02:20:13;4.72;83.77
78992;DHT22;72820;44.838;37.674;2024-01-27T02:21:15;4.69;83.77
78992;DHT22;72820;44.838;37.674;2024-01-27T02:22:17;4.66;83.61
78992;DHT22;72820;44.838;37.674;2024-01-27T02:23:18;4.68;83.68
78992;DHT22;72820;44.838;37.674;2024-01-27T02:24:20;4.68;83.57
78992;DHT22;72820;44.838;37.674;2024-01-27T02:25:21;4.65;83.67
78992;DHT22;72820;44.838;37.674;2024-01-27T02:26:23;4.59;83.83
78992;DHT22;72820;44.838;37.674;2024-01-27T02:27:25;4.64;83.79
78992;DHT22;72820;44.838;37.674;2024-01-27T02:28:26;4.62;83.96
78992;DHT22;72820;44.838;37.674;2024-01-27T02:29:28;4.59;83.94
78992;DHT22;72820;44.838;37.674;2024-01-27T02:30:30;4.61;84.06
78992;DHT22;72820;44.838;37.674;2024-01-27T02:31:31;4.61;84.15
78992;DHT22;72820;44.838;37.674;2024-01-27T02:32:33;4.64;84.05
78992;DHT22;72820;44.838;37.674;2024-01-27T02:33:35;4.62;83.86
78992;DHT22;72820;44.838;37.674;2024-01-27T02:34:36;4.58;84.00
78992;DHT22;72820;44.838;37.674;2024-01-27T02:35:38;4.57;84.24
78992;DHT22;72820;44.838;37.674;2024-01-27T02:36:39;4.61;84.28
78992;DHT22;72820;44.838;37.674;2024-01-27T02:37:42;4.62;84.27
78992;DHT22;72820;44.838;37.674;2024-01-27T02:38:43;4.65;84.24
78992;DHT22;72820;44.838;37.674;2024-01-27T02:39:45;4.68;84.22
78992;DHT22;72820;44.838;37.674;2024-01-27T02:40:47;4.71;84.10
78992;DHT22;72820;44.838;37.674;2024-01-27T02:41:48;4.72;84.02
78992;DHT22;72820;44.838;37.674;2024-01-27T02:42:50;4.71;84.03
78992;DHT22;72820;44.838;37.674;2024-01-27T02:43:51;4.68;83.95
78992;DHT22;72820;44.838;37.674;2024-01-27T02:44:53;4.66;84.10
78992;DHT22;72820;44.838;37.674;2024-01-27T02:45:55;4.64;84.36
78992;DHT22;72820;44.838;37.674;2024-01-27T02:46:56;4.68;84.34
78992;DHT22;72820;44.838;37.674;2024-01-27T02:47:58;4.68;84.33
78992;DHT22;72820;44.838;37.674;2024-01-27T02:49:00;4.69;84.12
78992;DHT22;72820;44.838;37.674;2024-01-27T02:50:01;4.69;84.13
78992;DHT22;72820;44.838;37.674;2024-01-27T02:51:03;4.68;84.27
78992;DHT22;72820;44.838;37.674;2024-01-27T02:52:05;4.72;84.19
78992;DHT22;72820;44.838;37.674;2024-01-27T02:53:07;4.73;84.11
78992;DHT22;72820;44.838;37.674;2024-01-27T02:54:08;4.73;84.00
78992;DHT22;72820;44.838;37.674;2024-01-27T02:55:10;4.73;83.97
78992;DHT22;72820;44.838;37.674;2024-01-27T02:56:11;4.71;83.90
78992;DHT22;72820;44.838;37.674;2024-01-27T02:57:13;4.75;84.10
78992;DHT22;72820;44.838;37.674;2024-01-27T02:58:16;4.75;83.93
78992;DHT22;72820;44.838;37.674;2024-01-27T02:59:18;4.75;83.98
78992;DHT22;72820;44.838;37.674;2024-01-27T03:00:20;4.75;83.97
78992;DHT22;72820;44.838;37.674;2024-01-27T03:01:21;4.77;84.05
78992;DHT22;72820;44.838;37.674;2024-01-27T03:02:23;4.77;83.99
78992;DHT22;72820;44.838;37.674;2024-01-27T03:03:25;4.79;83.86
78992;DHT22;72820;44.838;37.674;2024-01-27T03:04:26;4.76;83.92
78992;DHT22;72820;44.838;37.674;2024-01-27T03:05:28;4.75;83.70
78992;DHT22;72820;44.838;37.674;2024-01-27T03:06:29;4.79;83.84
78992;DHT22;72820;44.838;37.674;2024-01-27T03:07:31;4.79;83.78
78992;DHT22;72820;44.838;37.674;2024-01-27T03:08:33;4.79;83.87
78992;DHT22;72820;44.838;37.674;2024-01-27T03:09:34;4.79;83.65
78992;DHT22;72820;44.838;37.674;2024-01-27T03:10:36;4.82;83.74
78992;DHT22;72820;44.838;37.674;2024-01-27T03:11:38;4.82;83.74
78992;DHT22;72820;44.838;37.674;2024-01-27T03:12:39;4.83;83.58
78992;DHT22;72820;44.838;37.674;2024-01-27T03:13:41;4.82;83.45
78992;DHT22;72820;44.838;37.674;2024-01-27T03:14:46;4.82;83.53
78992;DHT22;72820;44.838;37.674;2024-01-27T03:15:49;4.82;83.63
78992;DHT22;72820;44.838;37.674;2024-01-27T03:16:51;4.82;83.61
78992;DHT22;72820;44.838;37.674;2024-01-27T03:17:53;4.85;83.65
78992;DHT22;72820;44.838;37.674;2024-01-27T03:18:54;4.85;83.39
78992;DHT22;72820;44.838;37.674;2024-01-27T03:19:56;4.85;83.36
78992;DHT22;72820;44.838;37.674;2024-01-27T03:20:58;4.82;83.38
78992;DHT22;72820;44.838;37.674;2024-01-27T03:21:59;4.85;83.47
78992;DHT22;72820;44.838;37.674;2024-01-27T03:23:01;4.83;83.57
78992;DHT22;72820;44.838;37.674;2024-01-27T03:24:03;4.86;83.50
78992;DHT22;72820;44.838;37.674;2024-01-27T03:25:06;4.89;83.35
78992;DHT22;72820;44.838;37.674;2024-01-27T03:26:08;4.87;83.15
78992;DHT22;72820;44.838;37.674;2024-01-27T03:27:10;4.92;83.18
78992;DHT22;72820;44.838;37.674;2024-01-27T03:28:11;4.94;83.15
78992;DHT22;72820;44.838;37.674;2024-01-27T03:29:13;4.93;83.16
78992;DHT22;72820;44.838;37.674;2024-01-27T03:30:14;4.93;83.17
78992;DHT22;72820;44.838;37.674;2024-01-27T03:31:16;4.96;83.00
78992;DHT22;72820;44.838;37.674;2024-01-27T03:32:18;4.92;83.02
78992;DHT22;72820;44.838;37.674;2024-01-27T03:33:19;4.92;83.00
78992;DHT22;72820;44.838;37.674;2024-01-27T03:34:21;4.94;82.84
78992;DHT22;72820;44.838;37.674;2024-01-27T03:35:26;4.92;83.05
78992;DHT22;72820;44.838;37.674;2024-01-27T03:36:28;4.93;83.05
78992;DHT22;72820;44.838;37.674;2024-01-27T03:37:30;4.90;82.76
78992;DHT22;72820;44.838;37.674;2024-01-27T03:38:32;4.87;82.86
78992;DHT22;72820;44.838;37.674;2024-01-27T03:39:36;4.90;82.88
78992;DHT22;72820;44.838;37.674;2024-01-27T03:40:38;4.83;82.66
78992;DHT22;72820;44.838;37.674;2024-01-27T03:41:40;4.85;82.66
78992;DHT22;72820;44.838;37.674;2024-01-27T03:42:41;4.90;82.71
78992;DHT22;72820;44.838;37.674;2024-01-27T03:43:43;4.87;82.62
78992;DHT22;72820;44.838;37.674;2024-01-27T03:44:44;4.87;82.74
78992;DHT22;72820;44.838;37.674;2024-01-27T03:45:46;4.86;82.94
78992;DHT22;72820;44.838;37.674;2024-01-27T03:46:48;4.89;82.96
78992;DHT22;72820;44.838;37.674;2024-01-27T03:47:49;4.89;82.83
78992;DHT22;72820;44.838;37.674;2024-01-27T03:48:50;4.90;82.58
78992;DHT22;72820;44.838;37.674;2024-01-27T03:49:52;4.90;82.40
78992;DHT22;72820;44.838;37.674;2024-01-27T03:50:54;4.90;82.36
78992;DHT22;72820;44.838;37.674;2024-01-27T03:51:55;4.92;82.41
78992;DHT22;72820;44.838;37.674;2024-01-27T03:52:57;4.90;82.30
78992;DHT22;72820;44.838;37.674;2024-01-27T03:53:58;4.94;82.29
78992;DHT22;72820;44.838;37.674;2024-01-27T03:54:59;4.93;82.22
78992;DHT22;72820;44.838;37.674;2024-01-27T03:56:01;4.93;82.23
78992;DHT22;72820;44.838;37.674;2024-01-27T03:57:06;4.92;81.99
78992;DHT22;72820;44.838;37.674;2024-01-27T03:58:07;4.90;82.06
78992;DHT22;72820;44.838;37.674;2024-01-27T03:59:08;4.90;82.21
78992;DHT22;72820;44.838;37.674;2024-01-27T04:00:12;4.92;82.23
78992;DHT22;72820;44.838;37.674;2024-01-27T04:01:15;4.92;81.92
78992;DHT22;72820;44.838;37.674;2024-01-27T04:02:16;4.93;81.52
78992;DHT22;72820;44.838;37.674;2024-01-27T04:03:18;4.93;81.42
78992;DHT22;72820;44.838;37.674;2024-01-27T04:04:19;4.92;81.60
78992;DHT22;72820;44.838;37.674;2024-01-27T04:05:21;4.92;81.89
78992;DHT22;72820;44.838;37.674;2024-01-27T04:06:22;4.96;81.80
78992;DHT22;72820;44.838;37.674;2024-01-27T04:07:23;4.99;81.42
78992;DHT22;72820;44.838;37.674;2024-01-27T04:08:25;4.96;81.37
78992;DHT22;72820;44.838;37.674;2024-01-27T04:09:26;5.00;81.30
78992;DHT22;72820;44.838;37.674;2024-01-27T04:10:28;4.99;81.33
78992;DHT22;72820;44.838;37.674;2024-01-27T04:11:29;5.00;81.13
78992;DHT22;72820;44.838;37.674;2024-01-27T04:12:31;4.94;81.23
78992;DHT22;72820;44.838;37.674;2024-01-27T04:13:32;4.96;81.50
78992;DHT22;72820;44.838;37.674;2024-01-27T04:14:34;4.96;81.63
78992;DHT22;72820;44.838;37.674;2024-01-27T04:15:35;4.96;81.94
78992;DHT22;72820;44.838;37.674;2024-01-27T04:16:39;4.97;82.00
78992;DHT22;72820;44.838;37.674;2024-01-27T04:17:41;4.97;82.03
78992;DHT22;72820;44.838;37.674;2024-01-27T04:18:43;4.97;82.08
78992;DHT22;72820;44.838;37.674;2024-01-27T04:19:44;5.00;81.98
78992;DHT22;72820;44.838;37.674;2024-01-27T04:20:46;4.99;81.73
78992;DHT22;72820;44.838;37.674;2024-01-27T04:21:47;5.03;81.68
78992;DHT22;72820;44.838;37.674;2024-01-27T04:22:49;5.04;81.50
78992;DHT22;72820;44.838;37.674;2024-01-27T04:23:50;5.04;81.67
78992;DHT22;72820;44.838;37.674;2024-01-27T04:24:52;5.06;81.59
78992;DHT22;72820;44.838;37.674;2024-01-27T04:25:53;5.09;81.63
78992;DHT22;72820;44.838;37.674;2024-01-27T04:26:55;5.06;81.42
78992;DHT22;72820;44.838;37.674;2024-01-27T04:27:56;5.07;81.21
78992;DHT22;72820;44.838;37.674;2024-01-27T04:28:58;5.09;80.93
78992;DHT22;72820;44.838;37.674;2024-01-27T04:29:59;5.04;80.65
78992;DHT22;72820;44.838;37.674;2024-01-27T04:31:01;5.01;80.63
78992;DHT22;72820;44.838;37.674;2024-01-27T04:32:02;5.01;80.71
78992;DHT22;72820;44.838;37.674;2024-01-27T04:33:04;5.01;80.52
78992;DHT22;72820;44.838;37.674;2024-01-27T04:34:08;5.03;80.28
78992;DHT22;72820;44.838;37.674;2024-01-27T04:35:10;5.03;80.08
78992;DHT22;72820;44.838;37.674;2024-01-27T04:36:12;5.01;80.15
78992;DHT22;72820;44.838;37.674;2024-01-27T04:37:13;5.00;79.98
78992;DHT22;72820;44.838;37.674;2024-01-27T04:38:14;4.99;79.79
78992;DHT22;72820;44.838;37.674;2024-01-27T04:39:16;4.97;79.53
78992;DHT22;72820;44.838;37.674;2024-01-27T04:40:17;4.96;79.28
78992;DHT22;72820;44.838;37.674;2024-01-27T04:41:19;4.94;79.28
78992;DHT22;72820;44.838;37.674;2024-01-27T04:42:20;4.90;79.35
78992;DHT22;72820;44.838;37.674;2024-01-27T04:43:22;4.90;79.55
78992;DHT22;72820;44.838;37.674;2024-01-27T04:44:23;4.90;79.58
78992;DHT22;72820;44.838;37.674;2024-01-27T04:45:25;4.92;79.69
78992;DHT22;72820;44.838;37.674;2024-01-27T04:46:27;4.92;79.59
78992;DHT22;72820;44.838;37.674;2024-01-27T04:47:29;4.92;79.74
78992;DHT22;72820;44.838;37.674;2024-01-27T04:48:30;4.93;79.57
78992;DHT22;72820;44.838;37.674;2024-01-27T04:49:32;4.93;79.58
78992;DHT22;72820;44.838;37.674;2024-01-27T04:50:34;4.94;79.74
78992;DHT22;72820;44.838;37.674;2024-01-27T04:51:36;4.94;79.70
78992;DHT22;72820;44.838;37.674;2024-01-27T04:52:37;4.94;79.81
78992;DHT22;72820;44.838;37.674;2024-01-27T04:53:39;4.92;79.66
78992;DHT22;72820;44.838;37.674;2024-01-27T04:54:41;4.89;79.91
78992;DHT22;72820;44.838;37.674;2024-01-27T04:55:42;4.86;80.22
78992;DHT22;72820;44.838;37.674;2024-01-27T04:56:44;4.86;80.35
78992;DHT22;72820;44.838;37.674;2024-01-27T04:57:46;4.89;80.54
78992;DHT22;72820;44.838;37.674;2024-01-27T04:58:47;4.89;80.65
78992;DHT22;72820;44.838;37.674;2024-01-27T04:59:49;4.87;80.74
78992;DHT22;72820;44.838;37.674;2024-01-27T05:00:50;4.93;80.74
78992;DHT22;72820;44.838;37.674;2024-01-27T05:01:52;4.94;80.52
78992;DHT22;72820;44.838;37.674;2024-01-27T05:02:54;4.94;80.29
78992;DHT22;72820;44.838;37.674;2024-01-27T05:03:56;4.93;80.31
78992;DHT22;72820;44.838;37.674;2024-01-27T05:04:58;4.93;80.40
78992;DHT22;72820;44.838;37.674;2024-01-27T05:05:59;4.94;80.48
78992;DHT22;72820;44.838;37.674;2024-01-27T05:07:01;4.92;80.54
78992;DHT22;72820;44.838;37.674;2024-01-27T05:08:03;4.93;80.57
78992;DHT22;72820;44.838;37.674;2024-01-27T05:09:05;4.93;80.33
78992;DHT22;72820;44.838;37.674;2024-01-27T05:10:10;4.92;80.03
78992;DHT22;72820;44.838;37.674;2024-01-27T05:11:13;4.89;80.22
78992;DHT22;72820;44.838;37.674;2024-01-27T05:12:14;4.90;80.12
78992;DHT22;72820;44.838;37.674;2024-01-27T05:13:16;4.85;80.17
78992;DHT22;72820;44.838;37.674;2024-01-27T05:14:18;4.80;80.13
78992;DHT22;72820;44.838;37.674;2024-01-27T05:15:20;4.82;80.50
78992;DHT22;72820;44.838;37.674;2024-01-27T05:16:22;4.80;80.50
78992;DHT22;72820;44.838;37.674;2024-01-27T05:17:24;4.85;80.63
78992;DHT22;72820;44.838;37.674;2024-01-27T05:18:26;4.80;80.33
78992;DHT22;72820;44.838;37.674;2024-01-27T05:19:27;4.80;80.08
78992;DHT22;72820;44.838;37.674;2024-01-27T05:20:29;4.79;79.89
78992;DHT22;72820;44.838;37.674;2024-01-27T05:21:31;4.79;80.16
78992;DHT22;72820;44.838;37.674;2024-01-27T05:22:32;4.77;80.10
78992;DHT22;72820;44.838;37.674;2024-01-27T05:23:34;4.80;80.04
78992;DHT22;72820;44.838;37.674;2024-01-27T05:24:36;4.76;79.72
78992;DHT22;72820;44.838;37.674;2024-01-27T05:25:38;4.76;79.80
78992;DHT22;72820;44.838;37.674;2024-01-27T05:26:40;4.69;80.03
78992;DHT22;72820;44.838;37.674;2024-01-27T05:27:42;4.71;80.09
78992;DHT22;72820;44.838;37.674;2024-01-27T05:28:44;4.66;80.12
78992;DHT22;72820;44.838;37.674;2024-01-27T05:29:46;4.66;80.05
78992;DHT22;72820;44.838;37.674;2024-01-27T05:30:47;4.62;80.00
78992;DHT22;72820;44.838;37.674;2024-01-27T05:31:49;4.57;80.01
78992;DHT22;72820;44.838;37.674;2024-01-27T05:32:50;4.49;80.02
78992;DHT22;72820;44.838;37.674;2024-01-27T05:33:52;4.44;80.18
78992;DHT22;72820;44.838;37.674;2024-01-27T05:34:54;4.42;80.24
78992;DHT22;72820;44.838;37.674;2024-01-27T05:35:56;4.38;80.61
78992;DHT22;72820;44.838;37.674;2024-01-27T05:36:57;4.36;80.58
78992;DHT22;72820;44.838;37.674;2024-01-27T05:37:59;4.36;80.67
78992;DHT22;72820;44.838;37.674;2024-01-27T05:39:01;4.34;80.67
78992;DHT22;72820;44.838;37.674;2024-01-27T05:40:06;4.30;80.96
78992;DHT22;72820;44.838;37.674;2024-01-27T05:41:07;4.31;80.99
78992;DHT22;72820;44.838;37.674;2024-01-27T05:42:09;4.27;81.16
78992;DHT22;72820;44.838;37.674;2024-01-27T05:43:11;4.25;81.34
78992;DHT22;72820;44.838;37.674;2024-01-27T05:44:12;4.25;81.35
78992;DHT22;72820;44.838;37.674;2024-01-27T05:45:15;4.23;81.22
78992;DHT22;72820;44.838;37.674;2024-01-27T05:46:16;4.20;81.61
78992;DHT22;72820;44.838;37.674;2024-01-27T05:47:18;4.17;81.75
78992;DHT22;72820;44.838;37.674;2024-01-27T05:48:19;4.16;81.78
78992;DHT22;72820;44.838;37.674;2024-01-27T05:49:21;4.10;82.02
78992;DHT22;72820;44.838;37.674;2024-01-27T05:50:23;4.13;82.09
78992;DHT22;72820;44.838;37.674;2024-01-27T05:51:24;4.14;82.09
78992;DHT22;72820;44.838;37.674;2024-01-27T05:52:26;4.17;82.21
78992;DHT22;72820;44.838;37.674;2024-01-27T05:53:28;4.21;82.08
78992;DHT22;72820;44.838;37.674;2024-01-27T05:54:29;4.25;82.01
78992;DHT22;72820;44.838;37.674;2024-01-27T05:55:31;4.25;81.94
78992;DHT22;72820;44.838;37.674;2024-01-27T05:56:33;4.27;81.70
78992;DHT22;72820;44.838;37.674;2024-01-27T05:57:35;4.31;81.82
78992;DHT22;72820;44.838;37.674;2024-01-27T05:58:37;4.34;81.77
78992;DHT22;72820;44.838;37.674;2024-01-27T05:59:39;4.36;81.72
78992;DHT22;72820;44.838;37.674;2024-01-27T06:00:42;4.34;81.82
78992;DHT22;72820;44.838;37.674;2024-01-27T06:01:45;4.38;81.90
78992;DHT22;72820;44.838;37.674;2024-01-27T06:02:48;4.38;81.43
78992;DHT22;72820;44.838;37.674;2024-01-27T06:03:50;4.40;81.29
78992;DHT22;72820;44.838;37.674;2024-01-27T06:04:52;4.40;81.40
78992;DHT22;72820;44.838;37.674;2024-01-27T06:05:53;4.41;81.62
78992;DHT22;72820;44.838;37.674;2024-01-27T06:06:55;4.41;81.32
78992;DHT22;72820;44.838;37.674;2024-01-27T06:07:57;4.42;81.44
78992;DHT22;72820;44.838;37.674;2024-01-27T06:08:58;4.45;81.65
78992;DHT22;72820;44.838;37.674;2024-01-27T06:10:00;4.44;81.60
78992;DHT22;72820;44.838;37.674;2024-01-27T06:11:02;4.47;81.48
78992;DHT22;72820;44.838;37.674;2024-01-27T06:12:07;4.48;81.53
78992;DHT22;72820;44.838;37.674;2024-01-27T06:13:08;4.48;81.14
78992;DHT22;72820;44.838;37.674;2024-01-27T06:14:10;4.45;80.71
78992;DHT22;72820;44.838;37.674;2024-01-27T06:15:12;4.42;80.73
78992;DHT22;72820;44.838;37.674;2024-01-27T06:16:13;4.42;80.93
78992;DHT22;72820;44.838;37.674;2024-01-27T06:17:15;4.44;81.39
78992;DHT22;72820;44.838;37.674;2024-01-27T06:18:17;4.47;80.94
78992;DHT22;72820;44.838;37.674;2024-01-27T06:19:19;4.48;81.06
78992;DHT22;72820;44.838;37.674;2024-01-27T06:20:20;4.52;80.84
78992;DHT22;72820;44.838;37.674;2024-01-27T06:21:22;4.57;81.01
78992;DHT22;72820;44.838;37.674;2024-01-27T06:22:24;4.65;80.65
78992;DHT22;72820;44.838;37.674;2024-01-27T06:23:25;4.61;80.42
78992;DHT22;72820;44.838;37.674;2024-01-27T06:24:28;4.65;80.44
78992;DHT22;72820;44.838;37.674;2024-01-27T06:25:30;4.68;80.72
78992;DHT22;72820;44.838;37.674;2024-01-27T06:26:31;4.73;80.70
78992;DHT22;72820;44.838;37.674;2024-01-27T06:27:33;4.75;80.69
78992;DHT22;72820;44.838;37.674;2024-01-27T06:28:35;4.79;80.36
78992;DHT22;72820;44.838;37.674;2024-01-27T06:29:37;4.73;79.86
78992;DHT22;72820;44.838;37.674;2024-01-27T06:30:39;4.69;80.15